El Dorado Springs, MO (64744)

11:09 AM CST on November 27, 2014 (GMT -0600)
RAWS WAH KON TAH MO US | Change Station
CLOSE
Current Station
Personal Weather Station
Location: El Dorado Springs, MO
Elevation: 944 ft
Nearby Weather Stations

Elev 944 ft 37.90 °N, 93.99 °W | Updated 41 minutes ago

Mostly Cloudy
Mostly Cloudy
34 °F
Feels Like 34 °F
N
3
Wind Variable Wind from NE
Gusts 9.0 mph

Today
High -- | Low -- °F
--% Chance of Precip.
Yesterday
High -- | Low -- °F
Precip. -- in
7:09 AM 4:58 PM
Waxing Crescent, 31% visible
Pressure 30.55 in
Visibility 7.0 miles
Clouds Mostly Cloudy 1400 ft
Overcast 7000 ft
Windchill 34 °F
Dew Point 25 °F
Humidity 70%
Rainfall 0.00 in
Snow Depth Not available.
UV 1 out of 12
Pollen .90 out of 12
Air Quality Not available.
Flu Activity Not available.
METAR KGLY 271655Z AUTO 00000KT 7SM BKN014 OVC070 00/M03 A3055 RMK AO2

More Conditions Fewer Conditions

Pressure 30.55 in
Visibility 7.0 miles
Clouds Mostly Cloudy 1400 ft
Overcast 7000 ft
Windchill 34 °F
Dew Point 25 °F
Humidity 70%
Rainfall 0.00 in
Snow Depth Not available.
UV 1 out of 12
Pollen .90 out of 12
Air Quality Not available.
Flu Activity Not available.
METAR KGLY 271655Z AUTO 00000KT 7SM BKN014 OVC070 00/M03 A3055 RMK AO2

More Conditions Fewer Conditions

10-Day Weather Forecast

Almanac

Astronomy

Nov. 27, 2014 Rise Set
Actual Time
Civil Twilight
Nautical Twilight
Astronomical Twilight
Moon
Length of Visible Light
Length of Day
Tomorrow will be .
, % of the Moon is Illuminated

Today's Extremes

State Highs State Lows

Community

WunderPhotos

Upload Photos

1,774,040 photos uploaded!

WunderBlogs® & News

Nearby

Air Quality

  Air Quality AQ Index Pollutant
Not available.

Snow Depth

Station Depth Elevation

Earthquake Activity

City Distance Mag. Time & Date
Minimum magnitude displayed is 2.5.

Coastal Water Temperatures

Place Temperature

Nearby Weather Stations